首页
METAR-TAF:

METAR-TAF

机场 :

哈米德·卡尔扎伊国际机场

喀布尔, 阿富汗

纬度: 34-38N, 经度: 069-12E, 海拔: 1789米

当前天气观测

该预报发布于27分钟前的21:50 UTC
风速3节,风向北转西北
温度 -2°C
湿度 54%
气压 1023 hPa
能见度10公里或以上
1500米以下无云,无积雨云

METAR: OAKB 152150Z 34003KT CAVOK M02/M10 Q1023 NOSIG RMK A3022 BLU BLU

时间: 02:47 (22:17 UTC)

预报

该预报发布于5小时和12分钟前的17:05 UTC
预报有效从15日的 18点(UTC)到 16日的 18点(UTC)
风速2节,风向多变
能见度10公里或以上
1500米以下无云,无积雨云
短暂存在
从 15日的 18点(UTC)到 15日的 21点(UTC)
能見度: 4000
短暂存在
从 16日的 01点(UTC)到 16日的 06点(UTC)
能見度: 4000

TAF: OAKB 151705Z 1518/1618 VRB02KT CAVOK TEMPO 1518/1521 4000 FU TEMPO 1601/1606 4000 FU

超过4000个机场的气象观测和天气预报(METAR&TAF报告)。

可查询的气象台以黄色和红色小点在地图上表示。

将鼠标移到小点上方,可查看气象台名称。

然后点击查看天气观测和预报。

如需切换地图:点击带黑十字的绿色按钮放大地图;点击带横线的绿色按钮缩小地图;或者点击绿色箭头查看邻近地区的地图。


METAR-TAF: